Portada
METAR-TAF:

METAR-TAF

Aeropuertos :

Aeropuerto de Kangiqsualujjuaq

Kangiqsualujjuaq, Quebec, Canadá

latitud: 58-43N, longitud: 065-59W, altitud: 60 m

Observación

El informe se hizo hace 9 horas y 47 minutos, a las 22:00 UTC
Viento 21 kt del sur-sureste con ráfagas de 26 kt
Temperatura -3°C
Humedad 74%
Presión 1008 hPa
Visibilidad: 24.1 km
Escasas nubes a una altura de 4600 ft
Nubes dispersas a una altura de 8200 ft
Cielo nuboso a una altura de 10000 ft
Cielo cubierto a una altura de 12000 ft
Ventisca baja de nieve

METAR: CYLU 212200Z 16021G26KT 15SM DRSN FEW046 SCT082 BKN100 OVC120 M03/M07 A2978 RMK SC2AC2AC3AS1 LAST OBS/NEXT 221300UTC SLP092

Hora: 02:47 (07:47 UTC)


TAF: falta

Observaciones y pronósticos meteorológicos de más de 4000 aeropuertos (mensajes METAR y TAF).

Los puntos amarillos y rojos representan las estaciones disponibles.

Ponga el ratón en el punto deseado para ver el nombre de la estación.

Haga clic para ver las observaciones y los pronósticos meteorológicos.

Para cambiar el mapa : haga clic en los botones verdes con una cruz de color negro para hacer un zoom, en el botón verde con un guión para alejar o en las flechas verdes para mapas adyacentes.


METAR-TAF: